createdAt,value
2018-05-16T00:00:29.603Z,15.50
2018-05-16T00:02:57.743Z,14.50
2018-05-16T00:05:26.206Z,16.20
2018-05-16T00:07:54.725Z,15.17
2018-05-16T00:10:24.000Z,15.23
2018-05-16T00:12:52.485Z,14.47
2018-05-16T00:15:24.140Z,15.50
2018-05-16T00:17:52.670Z,16.13
2018-05-16T00:20:21.087Z,15.40
2018-05-16T00:22:50.302Z,14.50
2018-05-16T00:25:18.793Z,14.97
2018-05-16T00:27:47.294Z,16.03
2018-05-16T00:30:15.801Z,16.10
2018-05-16T00:32:44.228Z,16.40
2018-05-16T00:35:12.742Z,16.20
2018-05-16T00:37:41.266Z,14.00
2018-05-16T00:40:09.793Z,15.73
2018-05-16T00:42:38.265Z,16.40
2018-05-16T00:45:06.718Z,16.07
2018-05-16T00:47:35.114Z,16.23
2018-05-16T00:50:03.857Z,15.00
2018-05-16T00:52:32.289Z,15.77
2018-05-16T00:55:00.873Z,14.77
2018-05-16T00:57:29.639Z,15.90
2018-05-16T00:59:58.292Z,15.00
2018-05-16T01:02:27.577Z,16.77
2018-05-16T01:04:56.034Z,18.67
2018-05-16T01:07:24.535Z,17.57
2018-05-16T01:09:53.020Z,16.47
2018-05-16T01:12:21.482Z,16.83
2018-05-16T01:14:49.954Z,16.47
2018-05-16T01:17:18.471Z,17.03
2018-05-16T01:19:46.978Z,15.00
2018-05-16T01:22:15.374Z,16.93
2018-05-16T01:24:44.638Z,14.83
2018-05-16T01:27:13.122Z,17.43
2018-05-16T01:29:41.573Z,16.40
2018-05-16T01:32:10.816Z,15.90
2018-05-16T01:34:39.284Z,15.87
2018-05-16T01:37:08.732Z,15.47
2018-05-16T01:39:36.890Z,15.47
2018-05-16T01:42:05.386Z,16.30
2018-05-16T01:44:34.782Z,14.40
2018-05-16T01:47:03.196Z,16.37
2018-05-16T01:49:32.389Z,15.20
2018-05-16T01:52:00.879Z,15.37
2018-05-16T01:54:29.322Z,15.27
2018-05-16T01:56:57.816Z,16.43
2018-05-16T01:59:26.346Z,15.10
2018-05-16T02:01:54.846Z,16.37
2018-05-16T02:04:23.339Z,18.23
2018-05-16T02:06:51.829Z,17.20
2018-05-16T02:09:20.341Z,18.47
2018-05-16T02:11:48.797Z,16.70
2018-05-16T02:14:17.265Z,17.20
2018-05-16T02:16:45.751Z,16.70
2018-05-16T02:19:14.257Z,16.13
2018-05-16T02:21:42.755Z,16.93
2018-05-16T02:24:10.945Z,17.03
2018-05-16T02:26:39.435Z,16.63
2018-05-16T02:29:07.916Z,18.00
2018-05-16T02:31:36.462Z,16.30
2018-05-16T02:34:04.966Z,15.50
2018-05-16T02:36:33.474Z,17.93
2018-05-16T02:39:02.744Z,17.70
2018-05-16T02:41:31.257Z,17.30
2018-05-16T02:43:59.744Z,17.10
2018-05-16T02:46:28.246Z,16.80
2018-05-16T02:48:56.674Z,17.67
2018-05-16T02:51:25.961Z,16.87
2018-05-16T02:53:54.388Z,16.80
2018-05-16T02:56:23.621Z,18.97
2018-05-16T02:58:52.140Z,17.07
2018-05-16T03:01:20.673Z,17.47
2018-05-16T03:03:49.131Z,19.47
2018-05-16T03:06:17.627Z,19.17
2018-05-16T03:08:46.071Z,18.00
2018-05-16T03:11:15.359Z,17.73
2018-05-16T03:13:43.805Z,19.47
2018-05-16T03:16:12.335Z,19.10
2018-05-16T03:18:40.864Z,18.10
2018-05-16T03:21:10.121Z,21.40
2018-05-16T03:23:38.634Z,18.57
2018-05-16T03:26:06.796Z,19.07
2018-05-16T03:28:35.303Z,17.33
2018-05-16T03:31:03.770Z,19.87
2018-05-16T03:33:32.252Z,18.90
2018-05-16T03:36:00.751Z,20.23
2018-05-16T03:38:29.225Z,20.00
2018-05-16T03:40:58.463Z,18.60
2018-05-16T03:43:26.917Z,16.60
2018-05-16T03:45:55.402Z,16.97
2018-05-16T03:48:23.892Z,17.97
2018-05-16T03:50:52.397Z,15.40
2018-05-16T03:53:20.834Z,18.67
2018-05-16T03:55:49.316Z,18.80
2018-05-16T03:58:28.857Z,18.17
2018-05-16T04:01:09.022Z,17.10
2018-05-16T04:03:49.229Z,18.17
2018-05-16T04:06:17.721Z,17.53
2018-05-16T04:08:46.226Z,20.27
2018-05-16T04:11:14.745Z,17.30
2018-05-16T04:13:43.252Z,18.33
2018-05-16T04:16:13.379Z,18.80
2018-05-16T04:18:41.902Z,17.03
2018-05-16T04:21:11.154Z,19.70
2018-05-16T04:23:39.641Z,18.60
2018-05-16T04:26:08.074Z,18.57
2018-05-16T04:28:36.605Z,17.57
2018-05-16T04:31:05.858Z,17.97
2018-05-16T04:33:34.318Z,19.37
2018-05-16T04:36:02.891Z,21.00
2018-05-16T04:38:32.146Z,22.70
2018-05-16T04:41:01.068Z,19.10
2018-05-16T04:43:29.621Z,19.70
2018-05-16T04:45:58.161Z,22.07
2018-05-16T04:48:26.941Z,20.77
2018-05-16T04:50:59.002Z,22.40
2018-05-16T04:53:27.520Z,22.30
2018-05-16T04:55:56.055Z,21.80
2018-05-16T04:58:25.277Z,21.60
2018-05-16T05:00:53.920Z,22.23
2018-05-16T05:03:40.540Z,22.60
2018-05-16T05:06:12.093Z,23.27
2018-05-16T05:08:41.746Z,21.40
2018-05-16T05:11:11.271Z,21.73
2018-05-16T05:13:40.580Z,22.23
2018-05-16T05:19:28.192Z,21.87
2018-05-16T05:21:56.853Z,24.00
2018-05-16T05:27:03.277Z,23.27
2018-05-16T05:29:32.354Z,24.30
2018-05-16T05:32:00.962Z,23.80
2018-05-16T05:34:34.055Z,26.97
2018-05-16T05:37:03.591Z,27.57
2018-05-16T05:39:32.322Z,26.57
2018-05-16T05:42:00.868Z,25.40
2018-05-16T05:47:12.805Z,26.53
2018-05-16T05:49:41.384Z,26.83
2018-05-16T05:52:12.323Z,26.50
2018-05-16T06:08:51.253Z,25.80
2018-05-16T06:17:46.040Z,27.10
2018-05-16T06:20:15.284Z,25.57
2018-05-16T06:28:54.789Z,29.00
2018-05-16T06:34:34.262Z,28.40
2018-05-16T06:37:05.399Z,26.67
2018-05-16T06:39:35.952Z,27.40
2018-05-16T06:42:04.479Z,27.47
2018-05-16T06:44:33.139Z,25.83
2018-05-16T06:47:01.761Z,37.30
2018-05-16T06:49:30.440Z,31.20
2018-05-16T06:51:59.173Z,29.90
2018-05-16T07:00:33.590Z,44.03
2018-05-16T07:03:08.442Z,33.20
2018-05-16T07:08:41.883Z,32.03
2018-05-16T07:11:12.021Z,34.93
2018-05-16T07:13:43.285Z,40.30
2018-05-16T07:16:32.674Z,32.23
2018-05-16T07:19:01.389Z,31.50
2018-05-16T07:21:29.935Z,30.60
2018-05-16T07:24:11.333Z,32.40
2018-05-16T07:26:42.948Z,34.27
2018-05-16T07:29:13.224Z,35.20
2018-05-16T07:31:42.147Z,34.10
2018-05-16T07:34:10.739Z,35.00
2018-05-16T07:39:42.499Z,36.00
2018-05-16T07:42:11.031Z,37.40
2018-05-16T07:44:39.534Z,35.80
2018-05-16T07:47:08.220Z,35.70
2018-05-16T07:49:36.821Z,41.03
2018-05-16T07:52:05.608Z,36.80
2018-05-16T07:54:34.155Z,35.03
2018-05-16T07:57:02.689Z,33.63
2018-05-16T07:59:43.827Z,29.97
2018-05-16T08:02:14.933Z,31.00
2018-05-16T08:04:43.957Z,32.50
2018-05-16T08:07:12.581Z,26.13
2018-05-16T08:09:43.928Z,24.80
2018-05-16T08:12:12.538Z,27.30
2018-05-16T08:14:41.120Z,28.07
2018-05-16T08:17:11.506Z,28.03
2018-05-16T08:19:41.809Z,26.83
2018-05-16T08:22:13.423Z,27.23
2018-05-16T08:27:43.746Z,26.03
2018-05-16T08:30:14.126Z,23.33
2018-05-16T08:32:42.981Z,24.97
2018-05-16T08:35:12.696Z,25.20
2018-05-16T17:52:03.277Z,16.70
2018-05-16T17:54:31.790Z,17.70
2018-05-16T17:57:01.008Z,16.90
2018-05-16T17:59:29.587Z,16.70
2018-05-16T18:02:00.451Z,18.77
2018-05-16T18:04:29.042Z,21.10
2018-05-16T18:06:57.599Z,20.60
2018-05-16T18:09:26.112Z,22.53
2018-05-16T18:11:54.605Z,23.73
2018-05-16T18:14:34.348Z,22.60
2018-05-16T18:17:16.062Z,21.10
2018-05-16T18:19:46.589Z,20.33
2018-05-16T18:22:15.401Z,23.10
2018-05-16T18:24:44.194Z,22.40
2018-05-16T18:27:12.832Z,22.47
2018-05-16T18:32:44.073Z,22.00
2018-05-16T18:41:05.988Z,17.23
2018-05-16T18:43:34.684Z,5.83
2018-05-16T18:49:16.521Z,3.43
2018-05-16T18:51:53.423Z,5.13
2018-05-16T18:54:22.008Z,5.30
2018-05-16T18:56:51.929Z,5.20
2018-05-16T18:59:22.183Z,5.20
2018-05-16T19:01:54.135Z,5.40
2018-05-16T19:04:43.023Z,6.60
2018-05-16T19:07:14.245Z,6.33
2018-05-16T19:09:42.713Z,5.10
2018-05-16T19:14:49.374Z,5.97
2018-05-16T19:17:17.936Z,6.17
2018-05-16T19:22:49.411Z,6.40
2018-05-16T19:25:17.938Z,6.00
2018-05-16T19:27:46.987Z,6.60
2018-05-16T19:30:15.498Z,6.20
2018-05-16T19:32:43.979Z,5.47
2018-05-16T19:35:12.667Z,6.67
2018-05-16T19:37:41.303Z,5.80
2018-05-16T19:40:09.806Z,7.23
2018-05-16T19:42:38.326Z,6.80
2018-05-16T19:45:09.296Z,6.37
2018-05-16T19:47:37.772Z,7.10
2018-05-16T19:50:06.027Z,7.63
2018-05-16T19:52:34.516Z,7.33
2018-05-16T19:55:03.221Z,7.23
2018-05-16T19:57:31.804Z,7.37
2018-05-16T20:00:00.369Z,6.67
2018-05-16T20:02:29.049Z,6.73
2018-05-16T20:04:57.446Z,6.67
2018-05-16T20:10:30.127Z,6.53
2018-05-16T20:12:58.906Z,7.27
2018-05-16T20:15:27.591Z,7.23
2018-05-16T20:17:58.052Z,7.90
2018-05-16T20:20:26.835Z,7.83
2018-05-16T20:22:55.314Z,6.30
2018-05-16T20:25:24.581Z,7.87
2018-05-16T20:27:53.187Z,7.33
2018-05-16T20:30:25.698Z,7.83
2018-05-16T20:32:57.765Z,8.43
2018-05-16T20:35:31.009Z,9.13
2018-05-16T20:37:59.978Z,7.50
2018-05-16T20:40:28.509Z,9.00
2018-05-16T20:45:58.835Z,8.23
2018-05-16T20:48:33.617Z,8.50
2018-05-16T20:54:22.434Z,9.60
2018-05-16T20:56:50.945Z,9.27
2018-05-16T20:59:19.461Z,9.60
2018-05-16T21:01:47.938Z,9.53
2018-05-16T21:04:22.586Z,10.20
2018-05-16T21:06:58.280Z,11.23
2018-05-16T21:09:26.871Z,11.47
2018-05-16T21:11:55.433Z,9.40
2018-05-16T21:14:24.000Z,10.77
2018-05-16T21:16:53.272Z,10.57
2018-05-16T21:19:21.943Z,11.43
2018-05-16T21:21:56.143Z,11.97
2018-05-16T21:24:30.664Z,12.77
2018-05-16T21:26:59.196Z,12.20
2018-05-16T21:29:43.267Z,12.50
2018-05-16T21:32:11.819Z,10.97
2018-05-16T21:37:43.042Z,11.10
2018-05-16T21:40:11.624Z,10.43
2018-05-16T21:42:40.143Z,11.90
2018-05-16T21:45:13.069Z,11.47
2018-05-16T21:47:41.630Z,10.97
2018-05-16T21:50:10.221Z,11.80
2018-05-16T21:52:38.838Z,11.93
2018-05-16T21:55:11.855Z,13.37
2018-05-16T21:57:40.418Z,10.67
2018-05-16T22:00:08.638Z,11.63
2018-05-16T22:02:37.226Z,11.27
2018-05-16T22:05:24.246Z,10.87
2018-05-16T22:07:52.764Z,11.23
2018-05-16T22:10:21.031Z,10.60
2018-05-16T22:12:49.561Z,10.87
2018-05-16T22:15:18.347Z,11.37
2018-05-16T22:17:46.863Z,10.70
2018-05-16T22:20:19.099Z,10.70
2018-05-16T22:22:47.770Z,10.50
2018-05-16T22:25:17.972Z,10.33
2018-05-16T22:27:46.581Z,9.80
2018-05-16T22:30:22.012Z,10.20
2018-05-16T22:32:57.925Z,11.53
2018-05-16T22:35:31.898Z,13.37
2018-05-16T22:38:05.813Z,11.23
2018-05-16T22:40:39.744Z,13.40
2018-05-16T22:43:08.664Z,12.50
2018-05-16T22:48:31.397Z,12.03
2018-05-16T22:50:59.994Z,11.50
2018-05-16T22:53:28.514Z,11.57
2018-05-16T22:55:57.416Z,11.20
2018-05-16T22:58:25.937Z,10.77
2018-05-16T23:00:54.475Z,12.93
2018-05-16T23:03:23.730Z,12.10
2018-05-16T23:05:52.244Z,12.13
2018-05-16T23:08:20.760Z,11.30
2018-05-16T23:10:49.253Z,9.27
2018-05-16T23:13:17.818Z,10.50
2018-05-16T23:15:46.339Z,9.50
2018-05-16T23:18:15.212Z,9.73
2018-05-16T23:20:43.677Z,9.60
2018-05-16T23:23:12.231Z,10.20
2018-05-16T23:25:41.789Z,9.70
2018-05-16T23:28:11.049Z,10.53
2018-05-16T23:30:39.536Z,10.90
2018-05-16T23:33:08.031Z,9.87
2018-05-16T23:35:36.518Z,9.20
2018-05-16T23:38:05.016Z,9.50
2018-05-16T23:40:33.564Z,11.37
2018-05-16T23:43:02.074Z,10.83
2018-05-16T23:45:30.600Z,8.97
2018-05-16T23:47:59.087Z,10.33
2018-05-16T23:50:27.619Z,9.03
2018-05-16T23:52:56.142Z,9.10
2018-05-16T23:55:25.458Z,9.00
2018-05-16T23:57:54.742Z,8.30
